< < Back
Terminal Aerodrome Forecast


Current Version              Previous Versions:   1  2  3  4  5  6  7  8  9  

Terminal Aerodrome Forecast

830
FTUS42 KFFC 160500
TAFFTY
TAF
KFTY 160528Z 1606/1706 34006KT P6SM SKC
     FM161000 02004KT P6SM SKC
     FM161200 07007KT P6SM SKC
     FM161500 10009G16KT P6SM SCT250
     FM170000 10007KT P6SM SCT250=

Latest METAR

370
SAUS70 KWBC 160700 RRI
MTRFTY
METAR KFTY 160653Z 33003KT 10SM CLR 02/M03 A3015 RMK AO2 SLP211
T00221033


USA.gov is the U.S. government's official web portal to all federal, state and local government web resources and services.